createdAt,value
2018-08-09T00:02:26.276Z,100004.47
2018-08-09T00:04:59.485Z,100000.98
2018-08-09T00:07:35.101Z,99997.70
2018-08-09T00:10:08.480Z,99997.43
2018-08-09T00:12:41.884Z,99999.92
2018-08-09T00:15:17.497Z,100000.36
2018-08-09T00:17:50.938Z,99995.48
2018-08-09T00:20:23.817Z,99992.20
2018-08-09T00:22:56.428Z,99994.27
2018-08-09T00:25:29.071Z,99997.05
2018-08-09T00:28:02.790Z,99995.06
2018-08-09T00:30:36.136Z,99990.68
2018-08-09T00:33:08.700Z,99992.00
2018-08-09T00:35:43.242Z,99997.44
2018-08-09T00:38:16.648Z,99991.21
2018-08-09T00:40:51.610Z,99994.77
2018-08-09T00:43:25.501Z,99988.57
2018-08-09T00:45:58.152Z,99978.66
2018-08-09T00:48:31.850Z,99982.80
2018-08-09T00:51:06.704Z,99978.91
2018-08-09T00:53:39.385Z,99980.45
2018-08-09T00:56:12.192Z,99977.03
2018-08-09T00:58:45.137Z,99980.95
2018-08-09T01:01:18.000Z,99974.34
2018-08-09T01:03:51.473Z,99974.70
2018-08-09T01:06:24.317Z,99970.08
2018-08-09T01:09:04.020Z,99969.62
2018-08-09T01:11:38.375Z,99967.43
2018-08-09T01:14:12.528Z,99971.37
2018-08-09T01:16:45.073Z,99968.05
2018-08-09T01:19:18.277Z,99969.13
2018-08-09T01:25:17.276Z,99965.63
2018-08-09T01:27:50.729Z,99967.84
2018-08-09T01:30:23.359Z,99963.95
2018-08-09T01:32:56.394Z,99961.97
2018-08-09T01:35:28.998Z,99963.09
2018-08-09T01:38:01.908Z,99957.09
2018-08-09T01:40:36.856Z,99957.81
2018-08-09T01:43:31.863Z,99958.33
2018-08-09T01:46:04.777Z,99946.19
2018-08-09T01:48:37.896Z,99943.01
2018-08-09T01:51:10.636Z,99941.20
2018-08-09T01:53:45.812Z,99933.00
2018-08-09T01:56:18.944Z,99937.02
2018-08-09T01:58:53.215Z,99935.02
2018-08-09T02:01:26.075Z,99946.98
2018-08-09T02:03:59.335Z,99940.73
2018-08-09T02:06:32.006Z,99939.11
2018-08-09T02:09:32.136Z,99937.16
2018-08-09T02:12:05.198Z,99936.08
2018-08-09T02:14:38.505Z,99928.48
2018-08-09T02:17:11.316Z,99926.50
2018-08-09T02:19:44.031Z,99921.74
2018-08-09T02:22:17.249Z,99920.86
2018-08-09T02:24:50.180Z,99925.61
2018-08-09T02:27:22.797Z,99909.00
2018-08-09T02:29:55.588Z,99907.31
2018-08-09T02:32:28.355Z,99899.64
2018-08-09T02:35:01.238Z,99895.28
2018-08-09T02:37:34.026Z,99893.94
2018-08-09T02:40:08.142Z,99889.20
2018-08-09T02:42:42.553Z,99896.27
2018-08-09T02:45:16.682Z,99895.53
2018-08-09T02:47:50.597Z,99890.13
2018-08-09T02:50:23.440Z,99883.89
2018-08-09T02:52:56.065Z,99884.10
2018-08-09T02:55:29.080Z,99878.91
2018-08-09T02:58:01.626Z,99880.80
2018-08-09T03:00:34.242Z,99880.35
2018-08-09T03:03:07.296Z,99880.92
2018-08-09T03:05:39.977Z,99877.49
2018-08-09T03:08:12.664Z,99872.85
2018-08-09T03:10:45.582Z,99875.05
2018-08-09T03:13:18.151Z,99866.78
2018-08-09T03:15:51.053Z,99863.73
2018-08-09T03:18:23.932Z,99853.39
2018-08-09T03:20:56.673Z,99854.98
2018-08-09T03:23:29.488Z,99860.68
2018-08-09T03:26:02.723Z,99864.79
2018-08-09T03:28:35.462Z,99873.66
2018-08-09T03:31:08.320Z,99880.83
2018-08-09T03:33:41.261Z,99882.45
2018-08-09T03:36:13.900Z,99883.82
2018-08-09T03:38:48.438Z,99884.91
2018-08-09T03:41:21.876Z,99880.34
2018-08-09T03:43:54.470Z,99867.69
2018-08-09T03:46:27.112Z,99864.72
2018-08-09T03:49:00.114Z,99858.63
2018-08-09T03:51:35.036Z,99861.53
2018-08-09T03:54:08.347Z,99867.84
2018-08-09T03:56:41.500Z,99869.14
2018-08-09T03:59:14.355Z,99868.78
2018-08-09T04:01:47.055Z,99871.54
2018-08-09T04:04:20.040Z,99878.25
2018-08-09T04:06:53.556Z,99870.19
2018-08-09T04:09:27.094Z,99862.58
2018-08-09T04:12:00.661Z,99861.66
2018-08-09T04:14:33.219Z,99857.16
2018-08-09T04:17:12.009Z,99864.78
2018-08-09T04:19:46.071Z,99874.70
2018-08-09T04:22:19.520Z,99885.61
2018-08-09T04:24:52.293Z,99886.89
2018-08-09T04:27:24.884Z,99879.87
2018-08-09T04:29:57.458Z,99869.72
2018-08-09T04:32:30.731Z,99864.97
2018-08-09T04:35:03.529Z,99855.73
2018-08-09T04:37:36.919Z,99856.58
2018-08-09T04:40:09.693Z,99862.13
2018-08-09T04:42:42.888Z,99857.83
2018-08-09T04:45:16.435Z,99855.00
2018-08-09T04:47:52.411Z,99850.94
2018-08-09T04:50:24.901Z,99845.88
2018-08-09T04:52:57.523Z,99836.78
2018-08-09T04:55:30.216Z,99836.20
2018-08-09T04:58:02.975Z,99843.51
2018-08-09T05:00:35.389Z,99846.33
2018-08-09T05:03:08.113Z,99841.14
2018-08-09T05:05:40.646Z,99837.56
2018-08-09T05:08:13.244Z,99840.13
2018-08-09T05:10:45.967Z,99848.73
2018-08-09T05:13:18.377Z,99854.59
2018-08-09T05:15:51.722Z,99850.69
2018-08-09T05:18:26.122Z,99842.77
2018-08-09T05:20:58.526Z,99831.45
2018-08-09T05:23:32.528Z,99826.73
2018-08-09T05:26:06.369Z,99824.30
2018-08-09T05:28:38.945Z,99831.22
2018-08-09T05:31:11.333Z,99822.05
2018-08-09T05:33:46.238Z,99822.24
2018-08-09T05:36:19.517Z,99819.38
2018-08-09T05:38:52.110Z,99820.16
2018-08-09T05:41:26.565Z,99815.70
2018-08-09T05:43:59.875Z,99812.19
2018-08-09T05:46:32.293Z,99805.70
2018-08-09T05:49:05.400Z,99801.89
2018-08-09T05:51:39.712Z,99797.91
2018-08-09T05:54:12.296Z,99803.81
2018-08-09T05:56:45.360Z,99800.23
2018-08-09T05:59:17.913Z,99800.08
2018-08-09T06:01:50.471Z,99795.67
2018-08-09T06:04:23.300Z,99795.59
2018-08-09T06:06:55.824Z,99781.95
2018-08-09T06:09:28.431Z,99780.75
2018-08-09T06:12:01.328Z,99778.88
2018-08-09T06:14:33.913Z,99783.27
2018-08-09T06:17:06.509Z,99780.73
2018-08-09T06:19:39.552Z,99764.04
2018-08-09T06:22:12.989Z,99753.12
2018-08-09T06:24:45.688Z,99746.99
2018-08-09T06:27:20.817Z,99741.97
2018-08-09T06:29:54.296Z,99746.83
2018-08-09T06:32:26.962Z,99751.28
2018-08-09T06:35:00.180Z,99742.56
2018-08-09T06:37:33.486Z,99744.70
2018-08-09T06:40:12.244Z,99739.59
2018-08-09T06:42:45.040Z,99748.18
2018-08-09T06:45:18.748Z,99743.03
2018-08-09T06:47:53.912Z,99745.83
2018-08-09T06:50:29.338Z,99740.03
2018-08-09T06:53:02.107Z,99736.39
2018-08-09T06:55:37.274Z,99733.58
2018-08-09T06:58:09.900Z,99729.32
2018-08-09T07:00:42.839Z,99727.04
2018-08-09T07:03:16.452Z,99724.89
2018-08-09T07:05:49.139Z,99715.91
2018-08-09T07:08:24.068Z,99712.11
2018-08-09T07:10:56.626Z,99714.14
2018-08-09T07:13:29.258Z,99716.08
2018-08-09T07:16:02.770Z,99714.69
2018-08-09T07:18:37.064Z,99700.18
2018-08-09T07:21:12.285Z,99695.96
2018-08-09T07:23:44.973Z,99690.95
2018-08-09T07:26:17.608Z,99695.63
2018-08-09T07:28:56.657Z,99701.87
2018-08-09T07:31:33.970Z,99707.11
2018-08-09T07:34:12.226Z,99705.97
2018-08-09T07:36:50.688Z,99703.60
2018-08-09T07:39:24.222Z,99705.47
2018-08-09T07:41:56.779Z,99705.76
2018-08-09T07:44:31.013Z,99705.59
2018-08-09T07:47:06.440Z,99704.91
2018-08-09T07:49:39.476Z,99701.16
2018-08-09T07:52:12.824Z,99700.41
2018-08-09T07:54:47.626Z,99702.05
2018-08-09T07:57:21.356Z,99694.06
2018-08-09T07:59:54.066Z,99686.41
2018-08-09T08:02:30.929Z,99677.59
2018-08-09T08:05:05.718Z,99677.80
2018-08-09T08:07:38.357Z,99671.53
2018-08-09T08:10:11.569Z,99663.80
2018-08-09T08:12:43.998Z,99658.95
2018-08-09T08:15:15.805Z,99658.44
2018-08-09T08:17:51.629Z,99656.38
2018-08-09T08:20:24.240Z,99644.44
2018-08-09T08:22:56.788Z,99630.33
2018-08-09T08:25:29.796Z,99625.30
2018-08-09T08:28:05.412Z,99621.95
2018-08-09T08:30:40.971Z,99626.44
2018-08-09T08:33:15.314Z,99619.37
2018-08-09T08:35:47.888Z,99620.84
2018-08-09T08:38:20.731Z,99621.42
2018-08-09T08:40:53.843Z,99619.27
2018-08-09T08:43:28.576Z,99622.73
2018-08-09T08:46:05.229Z,99627.77
2018-08-09T08:48:39.008Z,99624.04
2018-08-09T08:51:14.668Z,99623.75
2018-08-09T08:53:49.012Z,99616.89
2018-08-09T08:56:23.482Z,99613.17
2018-08-09T08:58:57.287Z,99611.78
2018-08-09T09:01:30.583Z,99610.39
2018-08-09T09:04:04.054Z,99601.38
2018-08-09T09:06:37.057Z,99597.34
2018-08-09T09:09:12.800Z,99596.34
2018-08-09T09:11:46.280Z,99586.50
2018-08-09T09:14:19.256Z,99584.48
2018-08-09T09:16:53.443Z,99574.92
2018-08-09T09:19:28.800Z,99559.06
2018-08-09T09:22:06.270Z,99553.48
2018-08-09T09:24:44.536Z,99535.85
2018-08-09T09:27:17.091Z,99524.27
2018-08-09T09:29:51.320Z,99518.31
2018-08-09T09:32:25.652Z,99504.52
2018-08-09T09:34:59.953Z,99502.86
2018-08-09T09:37:33.256Z,99512.77
2018-08-09T09:40:08.137Z,99514.00
2018-08-09T09:42:41.064Z,99507.05
2018-08-09T09:45:20.250Z,99498.86
2018-08-09T09:47:55.969Z,99483.93
2018-08-09T09:50:29.716Z,99471.39
2018-08-09T09:53:07.345Z,99462.91
2018-08-09T09:55:43.754Z,99446.88
2018-08-09T09:58:20.667Z,99444.00
2018-08-09T10:00:59.565Z,99434.34
2018-08-09T10:03:32.152Z,99425.02
2018-08-09T10:06:10.900Z,99416.50
2018-08-09T10:08:46.295Z,99404.17
2018-08-09T10:11:20.030Z,99386.73
2018-08-09T10:13:56.919Z,99371.98
2018-08-09T10:16:29.623Z,99366.23
2018-08-09T10:19:02.902Z,99356.97
2018-08-09T10:21:37.564Z,99359.45
2018-08-09T10:24:11.527Z,99352.53
2018-08-09T10:26:45.621Z,99346.75
2018-08-09T10:29:23.220Z,99351.05
2018-08-09T10:31:56.653Z,99356.16
2018-08-09T10:34:29.874Z,99350.82
2018-08-09T10:37:06.321Z,99343.73
2018-08-09T10:39:39.201Z,99335.91
2018-08-09T10:42:12.824Z,99325.36
2018-08-09T10:44:47.024Z,99315.71
2018-08-09T10:47:20.305Z,99314.17
2018-08-09T10:49:55.592Z,99314.45
2018-08-09T10:52:31.424Z,99311.98
2018-08-09T10:55:04.893Z,99304.05
2018-08-09T10:57:39.692Z,99304.14
2018-08-09T11:00:14.724Z,99288.37
2018-08-09T11:02:49.989Z,99285.95
2018-08-09T11:05:24.624Z,99275.30
2018-08-09T11:07:58.318Z,99261.39
2018-08-09T11:10:38.359Z,99253.52
2018-08-09T11:13:12.984Z,99236.20
2018-08-09T11:15:51.004Z,99239.42
2018-08-09T11:18:25.648Z,99246.11
2018-08-09T11:21:00.240Z,99237.28
2018-08-09T11:23:36.341Z,99250.91
2018-08-09T11:26:11.733Z,99249.58
2018-08-09T11:28:44.429Z,99240.09
2018-08-09T11:31:17.349Z,99230.33
2018-08-09T11:33:57.605Z,99219.77
2018-08-09T11:36:46.678Z,99219.80
2018-08-09T11:39:19.219Z,99218.52
2018-08-09T11:41:51.987Z,99223.73
2018-08-09T11:44:25.217Z,99221.42
2018-08-09T11:46:57.897Z,99221.73
2018-08-09T11:49:31.367Z,99223.94
2018-08-09T11:52:04.333Z,99217.05
2018-08-09T11:54:38.620Z,99211.92
2018-08-09T11:57:11.170Z,99202.11
2018-08-09T11:59:44.282Z,99194.67
2018-08-09T12:02:16.752Z,99193.70
2018-08-09T12:04:49.299Z,99183.16
2018-08-09T12:07:25.251Z,99175.69
2018-08-09T12:10:02.235Z,99163.15
2018-08-09T12:12:35.975Z,99144.72
2018-08-09T12:15:09.282Z,99120.08
2018-08-09T12:17:42.640Z,99141.35
2018-08-09T12:20:17.071Z,99143.59
2018-08-09T12:22:51.325Z,99143.33
2018-08-09T12:25:24.676Z,99151.94
2018-08-09T12:27:58.053Z,99157.39
2018-08-09T12:30:32.649Z,99160.77
2018-08-09T12:33:09.030Z,99153.93
2018-08-09T12:35:43.131Z,99153.95
2018-08-09T12:38:17.477Z,99155.28
2018-08-09T12:40:50.582Z,99156.04
2018-08-09T12:43:24.717Z,99162.03
2018-08-09T12:45:58.231Z,99164.67
2018-08-09T12:48:34.732Z,99152.09
2018-08-09T12:51:09.638Z,99149.03
2018-08-09T12:53:48.237Z,99150.81
2018-08-09T12:56:24.077Z,99155.94
2018-08-09T12:59:02.954Z,99132.37
2018-08-09T13:01:38.636Z,99137.04
2018-08-09T13:04:17.824Z,99149.78
2018-08-09T13:06:57.813Z,99147.55
2018-08-09T13:09:48.652Z,99159.42
2018-08-09T13:12:27.309Z,99147.70
2018-08-09T13:15:09.472Z,99148.02
2018-08-09T13:17:54.367Z,99143.94
2018-08-09T13:20:30.234Z,99149.80
2018-08-09T13:23:03.846Z,99156.27
2018-08-09T13:25:41.431Z,99160.16
2018-08-09T13:28:16.421Z,99158.64
2018-08-09T13:30:52.176Z,99159.51
2018-08-09T13:33:29.793Z,99165.34
2018-08-09T13:36:06.693Z,99182.04
2018-08-09T13:38:43.409Z,99213.94
2018-08-09T13:41:19.921Z,99229.14
2018-08-09T13:43:56.233Z,99229.46
2018-08-09T13:46:34.922Z,99240.72
2018-08-09T13:49:22.046Z,99249.56
2018-08-09T13:52:00.116Z,99258.59
2018-08-09T13:54:35.196Z,99276.47
2018-08-09T13:57:10.736Z,99255.86
2018-08-09T13:59:48.779Z,99246.83
2018-08-09T14:02:32.901Z,99242.25
2018-08-09T14:05:10.370Z,99237.67
2018-08-09T14:07:48.690Z,99260.38
2018-08-09T14:10:23.855Z,99266.64
2018-08-09T14:13:00.264Z,99255.72
2018-08-09T14:15:39.898Z,99256.28
2018-08-09T14:18:16.357Z,99262.64
2018-08-09T14:20:49.484Z,99269.75
2018-08-09T14:23:23.382Z,99272.07
2018-08-09T14:26:04.647Z,99268.63
2018-08-09T14:28:38.034Z,99262.09
2018-08-09T14:31:15.307Z,99273.98
2018-08-09T14:33:48.981Z,99284.20
2018-08-09T14:36:22.323Z,99293.17
2018-08-09T14:38:58.247Z,99295.89
2018-08-09T14:41:33.455Z,99283.69
2018-08-09T14:44:08.241Z,99291.28
2018-08-09T14:46:41.172Z,99296.52
2018-08-09T14:49:15.440Z,99286.70
2018-08-09T14:51:52.588Z,99286.72
2018-08-09T14:54:36.362Z,99286.18
2018-08-09T14:57:09.398Z,99278.48
2018-08-09T14:59:42.119Z,99273.98
2018-08-09T15:02:18.492Z,99305.16
2018-08-09T15:04:52.976Z,99301.74
2018-08-09T15:07:28.547Z,99303.83
2018-08-09T15:10:04.622Z,99304.91
2018-08-09T15:12:37.337Z,99295.34
2018-08-09T15:15:13.616Z,99303.09
2018-08-09T15:17:48.671Z,99307.70
2018-08-09T15:20:22.036Z,99299.44
2018-08-09T15:22:55.620Z,99311.60
2018-08-09T15:25:31.604Z,99307.94
2018-08-09T15:28:06.701Z,99321.22
2018-08-09T15:30:39.586Z,99322.59
2018-08-09T15:33:13.675Z,99321.28
2018-08-09T15:35:50.576Z,99315.09
2018-08-09T15:38:26.963Z,99319.30
2018-08-09T15:41:06.025Z,99316.14
2018-08-09T15:43:42.570Z,99317.50
2018-08-09T15:46:18.268Z,99311.83
2018-08-09T15:48:53.324Z,99319.48
2018-08-09T15:51:26.489Z,99329.86
2018-08-09T15:53:59.118Z,99318.04
2018-08-09T15:56:32.105Z,99317.03
2018-08-09T15:59:13.236Z,99310.08
2018-08-09T16:01:48.100Z,99305.08
2018-08-09T16:04:23.410Z,99296.19
2018-08-09T16:07:04.325Z,99280.61
2018-08-09T16:09:37.894Z,99284.16
2018-08-09T16:12:14.419Z,99286.58
2018-08-09T16:14:47.165Z,99290.95
2018-08-09T16:17:21.201Z,99299.11
2018-08-09T16:19:58.944Z,99302.50
2018-08-09T16:22:32.741Z,99298.23
2018-08-09T16:25:16.710Z,99300.62
2018-08-09T16:27:59.460Z,99295.20
2018-08-09T16:30:34.683Z,99296.66
2018-08-09T16:33:08.093Z,99274.05
2018-08-09T16:35:47.361Z,99275.02
2018-08-09T16:38:21.388Z,99272.20
2018-08-09T16:40:56.776Z,99263.46
2018-08-09T16:43:30.278Z,99256.48
2018-08-09T16:46:04.044Z,99244.36
2018-08-09T16:48:37.848Z,99262.45
2018-08-09T16:51:12.888Z,99253.16
2018-08-09T16:53:45.507Z,99251.66
2018-08-09T16:56:20.491Z,99263.22
2018-08-09T16:58:54.076Z,99269.95
2018-08-09T17:01:31.069Z,99261.66
2018-08-09T17:04:04.282Z,99254.77
2018-08-09T17:06:38.668Z,99259.06
2018-08-09T17:09:15.299Z,99235.25
2018-08-09T17:11:49.680Z,99247.59
2018-08-09T17:14:23.271Z,99248.67
2018-08-09T17:16:57.180Z,99249.88
2018-08-09T17:19:33.088Z,99247.91
2018-08-09T17:22:06.961Z,99247.09
2018-08-09T17:24:40.615Z,99246.87
2018-08-09T17:27:13.511Z,99255.53
2018-08-09T17:29:46.051Z,99255.05
2018-08-09T17:32:22.810Z,99260.89
2018-08-09T17:34:58.682Z,99272.55
2018-08-09T17:37:32.015Z,99275.96
2018-08-09T17:40:10.321Z,99285.88
2018-08-09T17:42:45.467Z,99285.10
2018-08-09T17:45:21.331Z,99274.55
2018-08-09T17:47:55.704Z,99281.05
2018-08-09T17:50:34.750Z,99286.45
2018-08-09T17:53:12.637Z,99279.61
2018-08-09T17:55:48.502Z,99290.20
2018-08-09T17:58:24.432Z,99306.09
2018-08-09T18:01:02.325Z,99331.99
2018-08-09T18:03:37.773Z,99346.58
2018-08-09T18:06:16.294Z,99350.09
2018-08-09T18:08:50.370Z,99376.96
2018-08-09T18:11:27.583Z,99393.73
2018-08-09T18:14:02.040Z,99386.04
2018-08-09T18:16:34.922Z,99397.33
2018-08-09T18:19:09.993Z,99402.27
2018-08-09T18:21:44.548Z,99409.69
2018-08-09T18:24:23.657Z,99422.69
2018-08-09T18:26:58.987Z,99435.53
2018-08-09T18:29:32.653Z,99445.80
2018-08-09T18:32:10.662Z,99461.52
2018-08-09T18:34:45.813Z,99441.27
2018-08-09T18:37:28.826Z,99458.07
2018-08-09T18:40:07.301Z,99447.37
2018-08-09T18:42:42.593Z,99465.47
2018-08-09T18:45:18.338Z,99474.44
2018-08-09T18:47:53.848Z,99480.98
2018-08-09T18:50:29.169Z,99482.87
2018-08-09T18:53:04.649Z,99506.37
2018-08-09T18:55:40.536Z,99498.15
2018-08-09T18:58:19.193Z,99504.97
2018-08-09T19:00:51.997Z,99507.02
2018-08-09T19:03:25.666Z,99508.28
2018-08-09T19:05:59.813Z,99512.79
2018-08-09T19:08:41.812Z,99538.22
2018-08-09T19:11:17.746Z,99542.55
2018-08-09T19:13:52.799Z,99539.69
2018-08-09T19:16:28.186Z,99547.56
2018-08-09T19:19:02.551Z,99549.63
2018-08-09T19:21:39.646Z,99552.22
2018-08-09T19:24:14.085Z,99571.40
2018-08-09T19:26:51.123Z,99572.03
2018-08-09T19:29:26.354Z,99583.86
2018-08-09T19:32:09.738Z,99585.83
2018-08-09T19:34:44.933Z,99582.33
2018-08-09T19:37:20.197Z,99579.08
2018-08-09T19:39:54.100Z,99590.83
2018-08-09T19:42:29.537Z,99592.17
2018-08-09T19:45:05.169Z,99592.11
2018-08-09T19:47:38.605Z,99587.31
2018-08-09T19:50:15.629Z,99589.49
2018-08-09T19:52:48.886Z,99592.20
2018-08-09T19:55:27.220Z,99595.95
2018-08-09T19:58:00.971Z,99600.34
2018-08-09T20:00:34.606Z,99597.59
2018-08-09T20:03:12.522Z,99596.08
2018-08-09T20:05:47.681Z,99608.02
2018-08-09T20:08:20.900Z,99630.98
2018-08-09T20:10:55.602Z,99616.73
2018-08-09T20:13:30.435Z,99615.03
2018-08-09T20:16:03.256Z,99608.96
2018-08-09T20:18:50.476Z,99622.69
2018-08-09T20:21:26.596Z,99630.60
2018-08-09T20:24:02.143Z,99638.26
2018-08-09T20:26:37.517Z,99631.22
2018-08-09T20:29:11.129Z,99659.35
2018-08-09T20:31:47.870Z,99647.48
2018-08-09T20:34:24.166Z,99650.79
2018-08-09T20:36:58.835Z,99663.77
2018-08-09T20:39:33.723Z,99650.38
2018-08-09T20:42:09.261Z,99673.02
2018-08-09T20:44:45.299Z,99675.52
2018-08-09T20:52:23.275Z,99675.08
2018-08-09T20:54:58.389Z,99694.21
2018-08-09T20:57:34.969Z,99706.92
2018-08-09T21:00:19.852Z,99709.41
2018-08-09T21:02:56.043Z,99712.16
2018-08-09T21:05:33.767Z,99721.86
2018-08-09T21:08:13.120Z,99723.92
2018-08-09T21:10:47.913Z,99743.66
2018-08-09T21:13:23.977Z,99750.82
2018-08-09T21:15:58.677Z,99753.41
2018-08-09T21:18:32.915Z,99769.73
2018-08-09T21:21:15.444Z,99786.86
2018-08-09T21:23:49.421Z,99800.14
2018-08-09T21:26:23.212Z,99802.07
2018-08-09T21:28:57.566Z,99795.49
2018-08-09T21:31:34.208Z,99813.89
2018-08-09T21:34:10.610Z,99823.72
2018-08-09T21:36:45.197Z,99840.91
2018-08-09T21:39:17.916Z,99839.24
2018-08-09T21:41:52.417Z,99858.92
2018-08-09T21:44:26.061Z,99844.52
2018-08-09T21:47:00.952Z,99834.40
2018-08-09T21:49:34.539Z,99846.59
2018-08-09T21:52:11.064Z,99858.63
2018-08-09T21:54:45.376Z,99853.17
2018-08-09T21:57:18.972Z,99862.62
2018-08-09T21:59:53.293Z,99876.83
2018-08-09T22:02:26.432Z,99880.30
2018-08-09T22:05:05.698Z,99889.78
2018-08-09T22:07:44.705Z,99892.85
2018-08-09T22:10:24.294Z,99893.16
2018-08-09T22:13:02.660Z,99913.61
2018-08-09T22:15:43.701Z,99927.36
2018-08-09T22:18:24.804Z,99936.08
2018-08-09T22:21:08.342Z,99945.44
2018-08-09T22:23:41.090Z,99948.30
2018-08-09T22:26:15.314Z,99955.06
2018-08-09T22:28:47.970Z,99973.84
2018-08-09T22:31:20.821Z,99985.47
2018-08-09T22:33:55.214Z,99982.08
2018-08-09T22:36:28.790Z,99991.41
2018-08-09T22:39:02.274Z,100000.83
2018-08-09T22:41:37.594Z,100004.22
2018-08-09T22:44:12.295Z,100027.05
2018-08-09T22:46:45.883Z,100019.16
2018-08-09T22:49:20.246Z,100018.92
2018-08-09T22:51:55.245Z,100023.20
2018-08-09T22:54:29.102Z,100024.38
2018-08-09T22:57:03.820Z,100031.52
2018-08-09T22:59:38.771Z,100037.27
2018-08-09T23:02:11.410Z,100044.25
2018-08-09T23:04:45.391Z,100042.67
2018-08-09T23:07:23.048Z,100058.67
2018-08-09T23:09:57.887Z,100053.55
2018-08-09T23:12:31.938Z,100062.45
2018-08-09T23:15:09.248Z,100060.42
2018-08-09T23:17:44.172Z,100061.75
2018-08-09T23:20:18.517Z,100070.81
2018-08-09T23:22:51.305Z,100086.77
2018-08-09T23:25:23.870Z,100080.23
2018-08-09T23:27:56.661Z,100093.58
2018-08-09T23:30:29.472Z,100086.14
2018-08-09T23:33:02.309Z,100090.47
2018-08-09T23:35:35.481Z,100105.74
2018-08-09T23:38:09.031Z,100107.22
2018-08-09T23:40:41.809Z,100106.11
2018-08-09T23:43:17.059Z,100111.28
2018-08-09T23:45:51.416Z,100113.42
2018-08-09T23:48:24.121Z,100119.02
2018-08-09T23:50:59.627Z,100130.45
2018-08-09T23:53:32.235Z,100134.68
2018-08-09T23:56:07.804Z,100135.52
2018-08-09T23:58:40.765Z,100142.69
